Flight Track Log - Related Links

Times and Time Zones

All times are in EDT time to prevent confusion due to time zone crossing. See the SLI421 flight status page for this flight to view local times or setup timezone preferences in your user account.

Time Position Orientation Groundspeed Altitude Reporting Facility
EDT Latitude Longitude Course Direction KTS MPH feet Rate Location/Type
Thu 06:28:00 PM 20.6238 -91.9276 262° West  Level Estimated
Thu 06:29:00 PM 20.6121 -92.0084 261° West  Level Estimated
Thu 06:30:00 PM 20.6003 -92.0893 261° West  Level Estimated
Thu 06:31:00 PM 20.5885 -92.1702 261° West  Level Estimated
Thu 06:32:00 PM 20.5767 -92.2510 261° West  Level Estimated
Thu 06:33:00 PM 20.5648 -92.3319 261° West  Level Estimated
Thu 06:34:00 PM 20.5529 -92.4127 261° West  Level Estimated
Thu 06:35:00 PM 20.5409 -92.4935 261° West  Level Estimated
Thu 06:36:00 PM 20.5289 -92.5743 261° West  Level Estimated
Thu 06:37:00 PM 20.5169 -92.6551 261° West  Level Estimated
Thu 06:38:00 PM 20.5048 -92.7359 261° West  Level Estimated
Thu 06:39:00 PM 20.4927 -92.8167 261° West  Level Estimated
Thu 06:40:00 PM 20.4806 -92.8974 261° West  Level Estimated
Thu 06:41:00 PM 20.4684 -92.9781 261° West  Level Estimated
Thu 06:42:00 PM 20.4562 -93.0589 261° West  Level Estimated
Thu 06:43:00 PM 20.4439 -93.1396 261° West  Level Estimated
Thu 06:44:00 PM 20.4316 -93.2203 261° West  Level Estimated
Thu 06:45:00 PM 20.4193 -93.3010 261° West  Level Estimated
Thu 06:46:00 PM 20.4069 -93.3817 261° West  Level Estimated
Thu 06:47:00 PM 20.3945 -93.4623 261° West  Level Estimated
Thu 06:48:00 PM 20.3821 -93.5430 261° West  Level Estimated
Thu 06:49:00 PM 20.3696 -93.6236 261° West  Level Estimated
Thu 06:50:00 PM 20.3571 -93.7042 261° West  Level Estimated
Thu 06:51:00 PM 20.3445 -93.7848 261° West  Level Estimated
Thu 06:52:00 PM 20.3319 -93.8654 261° West  Level Estimated
Thu 06:53:00 PM 20.3193 -93.9460 261° West  Level Estimated
Thu 06:54:00 PM 20.3066 -94.0266 260° West  Level Estimated
Thu 06:55:00 PM 20.2939 -94.1071 260° West  Level Estimated
Thu 06:56:00 PM 20.2812 -94.1877 260° West  Level Estimated
Thu 06:57:00 PM 20.2684 -94.2682 260° West  Level Estimated
Thu 06:58:00 PM 20.2556 -94.3487 260° West  Level Estimated
Thu 06:59:00 PM 20.2428 -94.4292 260° West  Level Estimated
Thu 07:00:00 PM 20.2299 -94.5097 260° West  Level Estimated
Thu 07:01:00 PM 20.2170 -94.5902 260° West  Level Estimated
Thu 07:02:00 PM 20.2040 -94.6707 260° West  Level Estimated
Thu 07:03:00 PM 20.1910 -94.7511 260° West  Level Estimated
Thu 07:04:00 PM 20.1780 -94.8316 260° West  Level Estimated
Thu 07:05:00 PM 20.1649 -94.9120 260° West  Level Estimated
Thu 07:06:00 PM 20.1518 -94.9924 260° West  Level Estimated
Thu 07:07:00 PM 20.1387 -95.0728 260° West  Level Estimated
Thu 07:08:00 PM 20.1255 -95.1532 260° West  Level Estimated
Thu 07:09:00 PM 20.1123 -95.2335 260° West  Level Estimated
Thu 07:10:00 PM 20.0990 -95.3139 260° West  Level Estimated
Thu 07:11:00 PM 20.0857 -95.3942 260° West  Level Estimated
Thu 07:12:00 PM 20.0724 -95.4746 260° West  Level Estimated
Thu 07:13:00 PM 20.0590 -95.5549 260° West  Level Estimated
Thu 07:14:00 PM 20.0457 -95.6352 260° West  Level Estimated
Thu 07:15:00 PM 20.0322 -95.7155 260° West  Level Estimated
Thu 07:16:00 PM 20.0187 -95.7957 260° West  Level Estimated
Thu 07:17:00 PM 20.0053 -95.8760 260° West  Level Estimated
Thu 07:18:00 PM 19.9917 -95.9562 260° West  Level Estimated
Thu 07:19:00 PM 19.9781 -96.0365 260° West  Level Estimated
Thu 07:20:00 PM 19.9645 -96.1167 260° West  Level Estimated
Thu 07:21:00 PM 19.9509 -96.1969 260° West  Level Estimated
Thu 07:22:00 PM 19.9372 -96.2771 260° West  Level Estimated
Thu 07:23:00 PM 19.9235 -96.3573 260° West  Level Estimated
Thu 07:24:00 PM 19.9097 -96.4374 260° West  Level Estimated
Thu 07:25:00 PM 19.8959 -96.5176 260° West  Level Estimated
Thu 07:26:00 PM 19.8821 -96.5977 260° West  Level Estimated
Thu 07:27:00 PM 19.8682 -96.6778 260° West  Level Estimated
Thu 07:28:00 PM 19.8543 -96.7579 260° West  Level Estimated
Thu 07:29:00 PM 19.8404 -96.8380 260° West  Level Estimated
Thu 07:30:00 PM 19.8264 -96.9181 260° West  Level Estimated

Login

Don't have an account? Register now (free) for customized features, flight alerts, and more!